Campbell Foss — WDC7754 — position and weather

sailwx.info

Track history (hours):
 
Tides and Currents Weather Stations Pressure Air Temp Water Temp Dewpoint Dewpoint Depression Visibility Wind Speed Wind Dir Waves Ship Positions

Campbell Foss

Owner: Foss Maritime Co., Seattle, WA. More information available from US FCC via Universal Licensing System and Coast Guard Vessel Documentation Center.

Last reported at 2016-May-31 03:33 UTC. Time now 2016-May-31 04:04 UTC.
Position N 33°45' W 118°16'.

Length 23 m; draft 16 m.

Type: Tug. MMSI: 367076360.

Date/timePositionNaut miles runAvg speedWind from/ knotsBaromVisibWave heightAir tempDewpointWater temp
2016-May-31 03:33N 33°45' W 118°16'0 0.0
2016-May-31 02:33N 33°45' W 118°16'2 2.4
2016-May-31 01:33N 33°46' W 118°13'0 0.3
2016-May-31 00:33N 33°46' W 118°13'3 2.8
2016-May-30 23:30N 33°44' W 118°12'2 2.3
2016-May-30 22:33N 33°45' W 118°13'1 0.7
2016-May-30 21:33N 33°45' W 118°13'0 0.2
2016-May-30 20:33N 33°45' W 118°13'0 0.1
2016-May-30 19:33N 33°45' W 118°13'1 0.7
2016-May-30 18:33N 33°46' W 118°13'0 0.0
2016-May-30 17:33N 33°46' W 118°13'2 2.1
2016-May-30 16:33N 33°46' W 118°16'0 0.0
2016-May-30 15:33N 33°46' W 118°16'0 0.4
2016-May-30 14:33N 33°45' W 118°16'1 0.8
2016-May-30 13:33N 33°45' W 118°17'3 1.4
2016-May-30 11:32N 33°44' W 118°14'2 2.5
2016-May-30 10:33N 33°46' W 118°13'0 0.0
2016-May-30 09:33N 33°46' W 118°13'0 0.0
2016-May-30 08:33N 33°46' W 118°13'0 0.0
2016-May-30 07:22N 33°46' W 118°13'1 0.3
2016-May-30 05:29N 33°46' W 118°13'0 0.0
2016-May-30 04:33N 33°46' W 118°13'0 0.0
2016-May-30 03:33N 33°46' W 118°13'1 0.4
2016-May-30 02:14N 33°45' W 118°13'1 1.2
2016-May-30 01:33N 33°44' W 118°13'3 2.6
2016-May-30 00:33N 33°45' W 118°16'1 1.2
2016-May-29 23:33N 33°46' W 118°15'1 1.1
2016-May-29 22:33N 33°45' W 118°16'0 0.3
2016-May-29 21:22N 33°45' W 118°16'2 1.3
2016-May-29 19:30N 33°44' W 118°14'2 2.1
2016-May-29 18:33N 33°46' W 118°13'2 2.1
2016-May-29 17:33N 33°46' W 118°16'0 0.0
2016-May-29 16:33N 33°46' W 118°16'0 0.3
2016-May-29 15:33N 33°46' W 118°15'2 2.1
2016-May-29 14:33N 33°45' W 118°13'1 0.5
2016-May-29 13:33N 33°45' W 118°13'1 1.1
2016-May-29 12:33N 33°44' W 118°12'1 1.0
2016-May-29 11:33N 33°44' W 118°12'3 2.8
2016-May-29 10:33N 33°46' W 118°13'0 0.0
2016-May-29 09:33N 33°46' W 118°13'0 0.0
2016-May-29 08:33N 33°46' W 118°13'0 0.0
2016-May-29 07:33N 33°46' W 118°13'1 0.7
2016-May-29 06:33N 33°46' W 118°13'0 0.4
2016-May-29 05:33N 33°45' W 118°13'1 0.7
2016-May-29 04:33N 33°45' W 118°12'1 0.7
2016-May-29 03:32N 33°44' W 118°13'3 3.1
2016-May-29 02:33N 33°46' W 118°16'0 0.0
2016-May-29 01:33N 33°46' W 118°16'3 2.5
2016-May-29 00:33N 33°46' W 118°13'0 0.0
2016-May-28 23:33N 33°46' W 118°13'0 0.0
2016-May-28 22:33N 33°46' W 118°13'0 0.0
2016-May-28 21:33N 33°46' W 118°13'0 0.0
2016-May-28 20:33N 33°46' W 118°13'1 0.7
2016-May-28 19:33N 33°46' W 118°13'0 0.0
2016-May-28 18:33N 33°46' W 118°13'0 0.0
2016-May-28 17:33N 33°46' W 118°13'0 0.2
2016-May-28 16:33N 33°46' W 118°13'4 3.4
2016-May-28 15:31N 33°43' W 118°16'3 2.7
2016-May-28 14:31N 33°46' W 118°16'4 3.5
2016-May-28 13:31N 33°44' W 118°12'1 0.7
2016-May-28 12:33N 33°44' W 118°12'1 0.6
2016-May-28 11:32N 33°44' W 118°12'0 0.0
2016-May-28 10:23N 33°44' W 118°12'1 1.0
2016-May-28 09:20N 33°45' W 118°12'3 1.5
2016-May-28 07:22N 33°45' W 118°16'2 2.6
2016-May-28 06:31N 33°46' W 118°13'0 0.5
2016-May-28 05:31N 33°45' W 118°13'1 0.3
2016-May-28 01:30N 33°46' W 118°13'0 0.1
2016-May-28 00:32N 33°46' W 118°13'0 0.0
2016-May-27 23:33N 33°46' W 118°13'1 0.8
2016-May-27 22:27N 33°46' W 118°14'0 0.4
2016-May-27 21:22N 33°46' W 118°14'1 1.4
2016-May-27 20:28N 33°46' W 118°13'1 0.1
2016-May-27 04:30N 33°45' W 118°13'1 1.0
2016-May-27 03:30N 33°46' W 118°13'0 0.4
2016-May-27 02:29N 33°46' W 118°13'0 0.0
2016-May-27 01:32N 33°46' W 118°13'1 0.5
2016-May-27 00:29N 33°46' W 118°13'2 1.8
2016-May-26 23:30N 33°45' W 118°12'1 0.5
2016-May-26 21:14N 33°45' W 118°13'1 1.4
2016-May-26 20:29N 33°46' W 118°14'1 1.0
2016-May-26 19:31N 33°46' W 118°13'0 0.0
2016-May-26 18:31N 33°46' W 118°13'3 0.3
2016-May-26 08:19N 33°45' W 118°17'3 1.5
2016-May-26 06:25N 33°46' W 118°13'1 0.3
2016-May-26 04:24N 33°46' W 118°13'1 0.3
2016-May-26 00:31N 33°45' W 118°13'1 0.5
2016-May-25 22:26N 33°46' W 118°13'1 0.6
2016-May-25 20:27N 33°45' W 118°13'1 0.7
2016-May-25 19:33N 33°46' W 118°13'0 0.0
2016-May-25 18:33N 33°46' W 118°13'1 0.9
2016-May-25 17:33N 33°45' W 118°13'3 2.2
2016-May-25 16:23N 33°46' W 118°16'3 1.0
2016-May-25 13:33N 33°44' W 118°14'1 1.3
2016-May-25 12:33N 33°45' W 118°13'0 0.3
2016-May-25 11:33N 33°45' W 118°13'0 0.0
2016-May-25 10:33N 33°45' W 118°13'0 0.0
2016-May-25 09:33N 33°45' W 118°13'0 0.0
2016-May-25 08:33N 33°45' W 118°13'0 0.0
2016-May-25 07:33N 33°45' W 118°13'0 0.5
2016-May-25 06:33N 33°46' W 118°13'0 0.0
2016-May-25 05:33N 33°46' W 118°13'0 0.0
2016-May-25 04:33N 33°46' W 118°13'0 0.0
2016-May-25 03:33N 33°46' W 118°13'3 2.1
2016-May-25 02:14N 33°44' W 118°16'2 2.8
2016-May-25 01:24N 33°45' W 118°13'1 1.0
2016-May-25 00:33N 33°46' W 118°13'1 0.9
2016-May-24 23:30N 33°45' W 118°14'1 1.0
2016-May-24 22:33N 33°46' W 118°13'0 0.1
2016-May-24 21:33N 33°46' W 118°13'0 0.0
2016-May-24 20:33N 33°46' W 118°13'0 0.0
2016-May-24 19:33N 33°46' W 118°13'0 0.0
2016-May-24 18:33N 33°46' W 118°13'1 0.7
2016-May-24 17:33N 33°45' W 118°13'1 1.3
2016-May-24 16:33N 33°46' W 118°13'1 1.4
2016-May-24 15:33N 33°45' W 118°13'0 0.2
2016-May-24 14:33N 33°45' W 118°13'0 0.0
2016-May-24 13:33N 33°45' W 118°13'0 0.1
2016-May-24 12:33N 33°45' W 118°13'0 0.3
2016-May-24 11:33N 33°45' W 118°13'0 0.3
2016-May-24 10:33N 33°45' W 118°13'0 0.0
2016-May-24 09:33N 33°45' W 118°13'0 0.2
2016-May-24 08:27N 33°45' W 118°13'1 1.0
2016-May-24 07:33N 33°46' W 118°13'0 0.0
2016-May-24 06:33N 33°46' W 118°13'0 0.0
2016-May-24 05:33N 33°46' W 118°13'3 3.0
2016-May-24 04:33N 33°44' W 118°10'1 0.7
2016-May-24 03:28N 33°44' W 118°11'4 0.1
2016-May-22 23:15N 33°43' W 118°16'1 1.2
2016-May-22 22:19N 33°43' W 118°15'2 2.8
2016-May-22 21:33N 33°44' W 118°13'  
Track history (hours):
 
Tides and Currents Weather Stations Pressure Air Temp Water Temp Dewpoint Dewpoint Depression Visibility Wind Speed Wind Dir Waves Ship Positions

Campbell Foss

Owner: Foss Maritime Co., Seattle, WA. More information available from US FCC via Universal Licensing System and Coast Guard Vessel Documentation Center.

Last reported at 2016-May-31 03:33 UTC. Time now 2016-May-31 04:04 UTC.
Position N 33°45' W 118°16'.

Length 23 m; draft 16 m.

Type: Tug. MMSI: 367076360.

Date/timePositionNaut miles runAvg speedWind from/ knotsBaromVisibWave heightAir tempDewpointWater temp
2016-May-31 03:33N 33°45' W 118°16'0 0.0
2016-May-31 02:33N 33°45' W 118°16'2 2.4
2016-May-31 01:33N 33°46' W 118°13'0 0.3
2016-May-31 00:33N 33°46' W 118°13'3 2.8
2016-May-30 23:30N 33°44' W 118°12'2 2.3
2016-May-30 22:33N 33°45' W 118°13'1 0.7
2016-May-30 21:33N 33°45' W 118°13'0 0.2
2016-May-30 20:33N 33°45' W 118°13'0 0.1
2016-May-30 19:33N 33°45' W 118°13'1 0.7
2016-May-30 18:33N 33°46' W 118°13'0 0.0
2016-May-30 17:33N 33°46' W 118°13'2 2.1
2016-May-30 16:33N 33°46' W 118°16'0 0.0
2016-May-30 15:33N 33°46' W 118°16'0 0.4
2016-May-30 14:33N 33°45' W 118°16'1 0.8
2016-May-30 13:33N 33°45' W 118°17'3 1.4
2016-May-30 11:32N 33°44' W 118°14'2 2.5
2016-May-30 10:33N 33°46' W 118°13'0 0.0
2016-May-30 09:33N 33°46' W 118°13'0 0.0
2016-May-30 08:33N 33°46' W 118°13'0 0.0
2016-May-30 07:22N 33°46' W 118°13'1 0.3
2016-May-30 05:29N 33°46' W 118°13'0 0.0
2016-May-30 04:33N 33°46' W 118°13'0 0.0
2016-May-30 03:33N 33°46' W 118°13'1 0.4
2016-May-30 02:14N 33°45' W 118°13'1 1.2
2016-May-30 01:33N 33°44' W 118°13'3 2.6
2016-May-30 00:33N 33°45' W 118°16'1 1.2
2016-May-29 23:33N 33°46' W 118°15'1 1.1
2016-May-29 22:33N 33°45' W 118°16'0 0.3
2016-May-29 21:22N 33°45' W 118°16'2 1.3
2016-May-29 19:30N 33°44' W 118°14'2 2.1
2016-May-29 18:33N 33°46' W 118°13'2 2.1
2016-May-29 17:33N 33°46' W 118°16'0 0.0
2016-May-29 16:33N 33°46' W 118°16'0 0.3
2016-May-29 15:33N 33°46' W 118°15'2 2.1
2016-May-29 14:33N 33°45' W 118°13'1 0.5
2016-May-29 13:33N 33°45' W 118°13'1 1.1
2016-May-29 12:33N 33°44' W 118°12'1 1.0
2016-May-29 11:33N 33°44' W 118°12'3 2.8
2016-May-29 10:33N 33°46' W 118°13'0 0.0
2016-May-29 09:33N 33°46' W 118°13'0 0.0
2016-May-29 08:33N 33°46' W 118°13'0 0.0
2016-May-29 07:33N 33°46' W 118°13'1 0.7
2016-May-29 06:33N 33°46' W 118°13'0 0.4
2016-May-29 05:33N 33°45' W 118°13'1 0.7
2016-May-29 04:33N 33°45' W 118°12'1 0.7
2016-May-29 03:32N 33°44' W 118°13'3 3.1
2016-May-29 02:33N 33°46' W 118°16'0 0.0
2016-May-29 01:33N 33°46' W 118°16'3 2.5
2016-May-29 00:33N 33°46' W 118°13'0 0.0
2016-May-28 23:33N 33°46' W 118°13'0 0.0
2016-May-28 22:33N 33°46' W 118°13'0 0.0
2016-May-28 21:33N 33°46' W 118°13'0 0.0
2016-May-28 20:33N 33°46' W 118°13'1 0.7
2016-May-28 19:33N 33°46' W 118°13'0 0.0
2016-May-28 18:33N 33°46' W 118°13'0 0.0
2016-May-28 17:33N 33°46' W 118°13'0 0.2
2016-May-28 16:33N 33°46' W 118°13'4 3.4
2016-May-28 15:31N 33°43' W 118°16'3 2.7
2016-May-28 14:31N 33°46' W 118°16'4 3.5
2016-May-28 13:31N 33°44' W 118°12'1 0.7
2016-May-28 12:33N 33°44' W 118°12'1 0.6
2016-May-28 11:32N 33°44' W 118°12'0 0.0
2016-May-28 10:23N 33°44' W 118°12'1 1.0
2016-May-28 09:20N 33°45' W 118°12'3 1.5
2016-May-28 07:22N 33°45' W 118°16'2 2.6
2016-May-28 06:31N 33°46' W 118°13'0 0.5
2016-May-28 05:31N 33°45' W 118°13'1 0.3
2016-May-28 01:30N 33°46' W 118°13'0 0.1
2016-May-28 00:32N 33°46' W 118°13'0 0.0
2016-May-27 23:33N 33°46' W 118°13'1 0.8
2016-May-27 22:27N 33°46' W 118°14'0 0.4
2016-May-27 21:22N 33°46' W 118°14'1 1.4
2016-May-27 20:28N 33°46' W 118°13'1 0.1
2016-May-27 04:30N 33°45' W 118°13'1 1.0
2016-May-27 03:30N 33°46' W 118°13'0 0.4
2016-May-27 02:29N 33°46' W 118°13'0 0.0
2016-May-27 01:32N 33°46' W 118°13'1 0.5
2016-May-27 00:29N 33°46' W 118°13'2 1.8
2016-May-26 23:30N 33°45' W 118°12'1 0.5
2016-May-26 21:14N 33°45' W 118°13'1 1.4
2016-May-26 20:29N 33°46' W 118°14'1 1.0
2016-May-26 19:31N 33°46' W 118°13'0 0.0
2016-May-26 18:31N 33°46' W 118°13'3 0.3
2016-May-26 08:19N 33°45' W 118°17'3 1.5
2016-May-26 06:25N 33°46' W 118°13'1 0.3
2016-May-26 04:24N 33°46' W 118°13'1 0.3
2016-May-26 00:31N 33°45' W 118°13'1 0.5
2016-May-25 22:26N 33°46' W 118°13'1 0.6
2016-May-25 20:27N 33°45' W 118°13'1 0.7
2016-May-25 19:33N 33°46' W 118°13'0 0.0
2016-May-25 18:33N 33°46' W 118°13'1 0.9
2016-May-25 17:33N 33°45' W 118°13'3 2.2
2016-May-25 16:23N 33°46' W 118°16'3 1.0
2016-May-25 13:33N 33°44' W 118°14'1 1.3
2016-May-25 12:33N 33°45' W 118°13'0 0.3
2016-May-25 11:33N 33°45' W 118°13'0 0.0
2016-May-25 10:33N 33°45' W 118°13'0 0.0
2016-May-25 09:33N 33°45' W 118°13'0 0.0
2016-May-25 08:33N 33°45' W 118°13'0 0.0
2016-May-25 07:33N 33°45' W 118°13'0 0.5
2016-May-25 06:33N 33°46' W 118°13'0 0.0
2016-May-25 05:33N 33°46' W 118°13'0 0.0
2016-May-25 04:33N 33°46' W 118°13'0 0.0
2016-May-25 03:33N 33°46' W 118°13'3 2.1
2016-May-25 02:14N 33°44' W 118°16'2 2.8
2016-May-25 01:24N 33°45' W 118°13'1 1.0
2016-May-25 00:33N 33°46' W 118°13'1 0.9
2016-May-24 23:30N 33°45' W 118°14'1 1.0
2016-May-24 22:33N 33°46' W 118°13'0 0.1
2016-May-24 21:33N 33°46' W 118°13'0 0.0
2016-May-24 20:33N 33°46' W 118°13'0 0.0
2016-May-24 19:33N 33°46' W 118°13'0 0.0
2016-May-24 18:33N 33°46' W 118°13'1 0.7
2016-May-24 17:33N 33°45' W 118°13'1 1.3
2016-May-24 16:33N 33°46' W 118°13'1 1.4
2016-May-24 15:33N 33°45' W 118°13'0 0.2
2016-May-24 14:33N 33°45' W 118°13'0 0.0
2016-May-24 13:33N 33°45' W 118°13'0 0.1
2016-May-24 12:33N 33°45' W 118°13'0 0.3
2016-May-24 11:33N 33°45' W 118°13'0 0.3
2016-May-24 10:33N 33°45' W 118°13'0 0.0
2016-May-24 09:33N 33°45' W 118°13'0 0.2
2016-May-24 08:27N 33°45' W 118°13'1 1.0
2016-May-24 07:33N 33°46' W 118°13'0 0.0
2016-May-24 06:33N 33°46' W 118°13'0 0.0
2016-May-24 05:33N 33°46' W 118°13'3 3.0
2016-May-24 04:33N 33°44' W 118°10'1 0.7
2016-May-24 03:28N 33°44' W 118°11'4 0.1
2016-May-22 23:15N 33°43' W 118°16'1 1.2
2016-May-22 22:19N 33°43' W 118°15'2 2.8
2016-May-22 21:33N 33°44' W 118°13'  

Dump ship's entire track history